Time;durP1;ratioP1;P1;durP2;ratioP2;P2;SDS_P1;SDS_P2;PMS_P1;PMS_P2;Temp;Humidity;BMP_temperature;BMP_pressure;BME280_temperature;BME280_humidity;BME280_pressure;Samples;Min_cycle;Max_cycle;Signal;HPM_P1;HPM_P2
2021/06/17 00:02:13;;;;;;;;;;;;;;;27.04;43.67;100489.97;5109162;28;1276;-70
2021/06/17 00:04:58;;;;;;;;;;;;;;;26.94;43.95;100491.84;5093786;28;1142;-70
2021/06/17 00:07:44;;;;;;;;;;;;;;;26.91;44.13;100493.94;5126311;28;1305;-70
2021/06/17 00:10:34;;;;;;;;;;;;;;;27.06;43.90;100516.53;5129726;28;1089;-70
2021/06/17 00:13:22;;;;;;;;;;;;;;;26.97;43.94;100553.03;5129655;28;710;-71
2021/06/17 00:16:08;;;;;;;;;;;;;;;27.02;43.84;100576.66;5129389;28;1251;-70
2021/06/17 00:18:54;;;;;;;;;;;;;;;26.92;44.58;100586.50;5128860;28;1965;-69
2021/06/17 00:21:39;;;;;;;;;;;;;;;26.93;44.35;100577.53;5129120;28;1285;-69
2021/06/17 00:24:24;;;;;;;;;;;;;;;26.87;44.83;100565.56;5113614;28;1091;-69
2021/06/17 00:27:10;;;;;;;;;;;;;;;26.93;45.05;100543.59;5129477;28;1270;-69
2021/06/17 00:29:55;;;;;;;;;;;;;;;26.96;45.00;100555.84;5132268;27;931;-69
2021/06/17 00:32:40;;;;;;;;;;;;;;;26.88;45.66;100556.56;5117591;27;1274;-68
2021/06/17 00:35:28;;;;;;;;;;;;;;;26.92;46.00;100541.94;5117195;27;1059;-69
2021/06/17 00:38:13;;;;;;;;;;;;;;;26.94;46.12;100536.41;5133295;27;1918;-69
2021/06/17 00:40:59;;;;;;;;;;;;;;;26.88;46.26;100539.69;5132640;27;1705;-69
2021/06/17 00:43:45;;;;;;;;;;;;;;;26.91;46.55;100539.38;5117338;27;619;-69
2021/06/17 00:46:31;;;;;;;;;;;;;;;26.96;46.59;100540.63;5133114;27;1286;-69
2021/06/17 00:49:16;;;;;;;;;;;;;;;26.94;46.84;100566.66;5132580;27;1138;-69
2021/06/17 00:52:06;;;;;;;;;;;;;;;26.96;47.05;100575.38;5132136;27;1373;-70
2021/06/17 00:54:51;;;;;;;;;;;;;;;26.88;47.36;100567.25;5132584;27;1090;-69
2021/06/17 00:57:38;;;;;;;;;;;;;;;26.91;47.56;100571.47;5132814;27;1898;-69
2021/06/17 01:00:23;;;;;;;;;;;;;;;26.91;48.16;100574.13;5133237;27;939;-69
2021/06/17 01:03:08;;;;;;;;;;;;;;;26.90;48.42;100573.28;5132645;27;1467;-70
2021/06/17 01:05:54;;;;;;;;;;;;;;;26.85;48.63;100580.91;5132953;27;1051;-70
2021/06/17 01:08:42;;;;;;;;;;;;;;;26.82;48.84;100577.66;5116921;27;671;-67
2021/06/17 01:11:34;;;;;;;;;;;;;;;26.85;49.60;100564.88;5131837;27;1270;-69
2021/06/17 01:14:37;;;;;;;;;;;;;;;26.81;49.70;100573.31;5132222;27;1167;-70
2021/06/17 01:17:23;;;;;;;;;;;;;;;26.84;50.11;100573.84;5116459;27;1977;-69
2021/06/17 01:20:08;;;;;;;;;;;;;;;26.79;51.14;100575.25;5131737;27;1140;-69
2021/06/17 01:23:13;;;;;;;;;;;;;;;26.80;51.57;100566.28;5131934;27;1283;-69
2021/06/17 01:25:58;;;;;;;;;;;;;;;26.90;51.78;100559.91;5131654;27;1349;-69
2021/06/17 01:28:45;;;;;;;;;;;;;;;26.72;52.89;100542.91;5116286;27;811;-68
2021/06/17 01:31:32;;;;;;;;;;;;;;;26.70;53.19;100536.03;5132381;27;1337;-69
2021/06/17 01:34:20;;;;;;;;;;;;;;;26.68;53.24;100528.16;5116248;27;1091;-68
2021/06/17 01:37:07;;;;;;;;;;;;;;;26.86;52.86;100523.81;5131764;27;1341;-68
2021/06/17 01:39:54;;;;;;;;;;;;;;;26.82;53.33;100510.84;5130266;27;1044;-68
2021/06/17 01:42:42;;;;;;;;;;;;;;;26.78;53.33;100520.13;5131539;27;1236;-67
2021/06/17 01:45:28;;;;;;;;;;;;;;;26.73;53.93;100517.88;5131857;27;1089;-68
2021/06/17 01:48:14;;;;;;;;;;;;;;;26.63;54.41;100519.72;5131316;27;1361;-69
2021/06/17 01:50:59;;;;;;;;;;;;;;;26.78;54.23;100518.28;5131383;27;1322;-69
2021/06/17 01:53:47;;;;;;;;;;;;;;;26.69;54.64;100516.47;5131447;27;714;-68
2021/06/17 01:56:33;;;;;;;;;;;;;;;26.70;55.00;100515.50;5131752;27;1253;-69
2021/06/17 01:59:19;;;;;;;;;;;;;;;26.71;55.12;100511.00;5131123;27;1981;-68
2021/06/17 02:02:05;;;;;;;;;;;;;;;26.66;54.97;100505.25;5131523;27;1567;-71
2021/06/17 02:04:52;;;;;;;;;;;;;;;26.57;55.71;100489.09;5131385;27;955;-70
2021/06/17 02:07:42;;;;;;;;;;;;;;;26.84;54.69;100493.69;5115776;27;1446;-71
2021/06/17 02:10:28;;;;;;;;;;;;;;;26.80;55.16;100486.97;5131307;27;900;-69
2021/06/17 02:13:15;;;;;;;;;;;;;;;26.78;54.95;100477.38;5131229;27;1366;-70
2021/06/17 02:16:02;;;;;;;;;;;;;;;26.79;55.13;100479.03;5131536;27;1269;-69
2021/06/17 02:18:49;;;;;;;;;;;;;;;26.66;55.24;100489.22;5131218;27;1964;-69
2021/06/17 02:21:34;;;;;;;;;;;;;;;26.61;55.45;100482.47;5131400;27;1347;-69
2021/06/17 02:24:20;;;;;;;;;;;;;;;26.73;55.01;100484.97;5131168;27;1163;-69
2021/06/17 02:27:12;;;;;;;;;;;;;;;26.63;54.91;100493.84;5131516;27;1291;-69
2021/06/17 02:30:04;;;;;;;;;;;;;;;26.70;54.83;100499.47;5131278;27;1136;-68
2021/06/17 02:32:50;;;;;;;;;;;;;;;26.69;54.46;100480.94;5130004;27;1313;-68
2021/06/17 02:35:35;;;;;;;;;;;;;;;26.74;54.16;100462.63;5130822;27;1135;-70
2021/06/17 02:38:30;;;;;;;;;;;;;;;26.68;54.54;100472.06;5130349;27;2197;-69
2021/06/17 02:41:17;;;;;;;;;;;;;;;26.64;54.62;100473.34;5131109;27;1346;-68
2021/06/17 02:44:02;;;;;;;;;;;;;;;26.58;54.28;100460.56;5130417;27;682;-68
2021/06/17 02:46:48;;;;;;;;;;;;;;;26.68;54.14;100455.19;5130256;27;1265;-69
2021/06/17 02:49:33;;;;;;;;;;;;;;;26.57;54.44;100443.69;5130051;27;1121;-69
2021/06/17 02:52:18;;;;;;;;;;;;;;;26.63;54.49;100435.09;5129099;27;1393;-69
2021/06/17 02:55:04;;;;;;;;;;;;;;;26.56;54.68;100442.03;5130450;27;1057;-69
2021/06/17 02:58:04;;;;;;;;;;;;;;;26.71;54.13;100434.38;5130235;27;1971;-68
2021/06/17 03:00:55;;;;;;;;;;;;;;;26.70;54.01;100421.16;5130045;27;1120;-67
2021/06/17 03:03:43;;;;;;;;;;;;;;;26.76;53.69;100412.53;5114348;27;686;-67
2021/06/17 03:06:30;;;;;;;;;;;;;;;26.63;53.59;100414.72;5130442;27;1221;-67
2021/06/17 03:09:19;;;;;;;;;;;;;;;26.66;53.32;100409.09;5114669;27;1024;-67
2021/06/17 03:12:05;;;;;;;;;;;;;;;26.65;53.47;100418.06;5129617;27;1271;-66
2021/06/17 03:14:51;;;;;;;;;;;;;;;26.68;53.27;100407.09;5129746;27;1053;-67
2021/06/17 03:17:40;;;;;;;;;;;;;;;26.69;52.93;100400.78;5129822;27;1243;-66
2021/06/17 03:20:26;;;;;;;;;;;;;;;26.56;53.14;100382.41;5129738;27;1029;-66
2021/06/17 03:23:16;;;;;;;;;;;;;;;26.68;53.01;100370.53;5129590;27;1253;-66
2021/06/17 03:26:04;;;;;;;;;;;;;;;26.68;52.78;100375.88;5129677;27;1274;-66
2021/06/17 03:28:50;;;;;;;;;;;;;;;26.61;53.10;100370.28;5113855;27;759;-66
2021/06/17 03:31:37;;;;;;;;;;;;;;;26.57;53.14;100363.53;5129670;27;1262;-66
2021/06/17 03:34:23;;;;;;;;;;;;;;;26.56;53.25;100367.22;5113578;27;1164;-67
2021/06/17 03:37:10;;;;;;;;;;;;;;;26.41;53.37;100366.00;5129390;27;1342;-66
2021/06/17 03:39:57;;;;;;;;;;;;;;;26.47;53.40;100362.75;5129116;27;1963;-66
2021/06/17 03:42:43;;;;;;;;;;;;;;;26.54;53.18;100352.31;5129197;27;1353;-66
2021/06/17 03:45:29;;;;;;;;;;;;;;;26.63;52.74;100351.41;5128946;27;947;-64
2021/06/17 03:48:16;;;;;;;;;;;;;;;26.60;53.20;100347.22;5114572;27;1358;-66
2021/06/17 03:51:02;;;;;;;;;;;;;;;26.46;53.22;100355.72;5130341;27;1261;-64
2021/06/17 03:53:48;;;;;;;;;;;;;;;26.60;53.33;100354.38;5131047;27;619;-66
2021/06/17 03:56:34;;;;;;;;;;;;;;;26.52;53.80;100343.59;5115287;28;1247;-65
2021/06/17 03:59:21;;;;;;;;;;;;;;;26.43;53.54;100340.00;5129141;27;1901;-66
2021/06/17 04:02:07;;;;;;;;;;;;;;;26.31;54.47;100340.31;5129235;28;1441;-66
2021/06/17 04:04:52;;;;;;;;;;;;;;;26.28;54.39;100333.44;5128510;27;982;-67
2021/06/17 04:07:39;;;;;;;;;;;;;;;26.48;53.93;100326.19;5129535;28;1307;-67
2021/06/17 04:10:25;;;;;;;;;;;;;;;26.49;53.94;100320.72;5129087;28;1146;-66
2021/06/17 04:13:12;;;;;;;;;;;;;;;26.46;54.08;100329.03;5128847;28;1373;-67
2021/06/17 04:15:58;;;;;;;;;;;;;;;26.60;53.84;100327.69;5129250;28;1326;-68
2021/06/17 04:18:48;;;;;;;;;;;;;;;26.36;54.44;100322.88;5112988;28;1992;-67
2021/06/17 04:21:34;;;;;;;;;;;;;;;26.50;53.99;100319.72;5129182;28;1263;-68
2021/06/17 04:24:21;;;;;;;;;;;;;;;26.51;53.88;100326.75;5128852;28;1046;-69
2021/06/17 04:27:07;;;;;;;;;;;;;;;26.50;53.87;100322.41;5128893;28;1287;-67
2021/06/17 04:29:53;;;;;;;;;;;;;;;26.30;54.31;100330.63;5113271;28;1032;-67
2021/06/17 04:32:40;;;;;;;;;;;;;;;26.46;54.22;100339.69;5113082;28;1241;-66
2021/06/17 04:35:26;;;;;;;;;;;;;;;26.39;54.34;100333.25;5128795;28;1184;-66
2021/06/17 04:38:13;;;;;;;;;;;;;;;26.37;53.70;100327.22;5128490;28;1898;-66
2021/06/17 04:40:58;;;;;;;;;;;;;;;26.33;53.36;100328.50;5112779;28;1224;-66
2021/06/17 04:43:44;;;;;;;;;;;;;;;26.35;52.77;100317.69;5128296;28;701;-66
2021/06/17 04:46:34;;;;;;;;;;;;;;;26.21;52.58;100308.31;5113106;28;1274;-66
2021/06/17 04:49:20;;;;;;;;;;;;;;;26.28;53.17;100301.41;5128736;28;1149;-65
2021/06/17 04:52:08;;;;;;;;;;;;;;;26.38;52.28;100304.88;5128521;28;1306;-66
2021/06/17 04:54:53;;;;;;;;;;;;;;;26.43;52.54;100293.75;5127821;28;1418;-67
2021/06/17 04:57:38;;;;;;;;;;;;;;;26.34;52.47;100291.97;5128393;28;1261;-65
2021/06/17 05:00:24;;;;;;;;;;;;;;;26.31;52.34;100287.75;5128881;28;1957;-64
2021/06/17 05:03:09;;;;;;;;;;;;;;;26.30;52.25;100296.75;5128796;28;1371;-65
2021/06/17 05:05:57;;;;;;;;;;;;;;;26.38;52.18;100298.69;5128075;28;1213;-64
2021/06/17 05:11:46;;;;;;;;;;;;;;;26.46;52.25;100278.28;5127930;28;1258;-65
2021/06/17 05:14:31;;;;;;;;;;;;;;;26.39;52.90;100285.19;5128127;27;956;-67
2021/06/17 05:17:16;;;;;;;;;;;;;;;26.32;52.99;100304.63;5131282;27;1345;-66
2021/06/17 05:20:03;;;;;;;;;;;;;;;26.45;53.09;100310.47;5131892;27;1902;-64
2021/06/17 05:22:49;;;;;;;;;;;;;;;26.43;53.43;100307.09;5132071;27;1386;-66
2021/06/17 05:25:34;;;;;;;;;;;;;;;26.35;53.40;100305.19;5132039;27;1135;-68
2021/06/17 05:28:21;;;;;;;;;;;;;;;26.39;53.17;100303.88;5116070;27;753;-66
2021/06/17 05:31:08;;;;;;;;;;;;;;;26.43;53.08;100302.59;5131319;27;1502;-64
2021/06/17 05:33:54;;;;;;;;;;;;;;;26.34;53.25;100292.81;5130210;27;693;-65
2021/06/17 05:36:40;;;;;;;;;;;;;;;26.35;53.68;100302.50;5114831;27;1278;-64
2021/06/17 05:39:25;;;;;;;;;;;;;;;26.39;53.78;100319.06;5130408;27;1902;-65
2021/06/17 05:42:10;;;;;;;;;;;;;;;26.25;54.01;100319.53;5131062;27;1370;-66
2021/06/17 05:44:56;;;;;;;;;;;;;;;26.34;54.07;100326.69;5130433;27;1600;-66
2021/06/17 05:47:41;;;;;;;;;;;;;;;26.27;54.55;100331.75;5130659;27;1250;-67
2021/06/17 05:50:26;;;;;;;;;;;;;;;26.32;54.95;100342.84;5131027;27;1139;-66
2021/06/17 05:53:11;;;;;;;;;;;;;;;26.33;54.97;100357.88;5129490;27;1289;-66
2021/06/17 05:55:56;;;;;;;;;;;;;;;26.39;56.34;100367.13;5130898;27;1216;-66
2021/06/17 05:58:42;;;;;;;;;;;;;;;26.28;57.87;100368.16;5130355;27;1909;-63
2021/06/17 06:01:27;;;;;;;;;;;;;;;26.33;58.45;100368.56;5115022;27;1596;-63
2021/06/17 06:04:12;;;;;;;;;;;;;;;26.27;59.42;100366.47;5130831;27;909;-63
2021/06/17 06:06:57;;;;;;;;;;;;;;;26.38;59.02;100368.97;5130917;27;1343;-63
2021/06/17 06:09:43;;;;;;;;;;;;;;;26.21;60.40;100360.84;5130953;27;1063;-63
2021/06/17 06:12:28;;;;;;;;;;;;;;;26.27;60.36;100365.63;5130379;27;1336;-65
2021/06/17 06:15:13;;;;;;;;;;;;;;;26.18;60.64;100359.31;5131290;27;959;-63
2021/06/17 06:18:06;;;;;;;;;;;;;;;26.30;60.37;100363.50;5130234;27;1275;-66
2021/06/17 06:20:56;;;;;;;;;;;;;;;26.26;59.97;100359.47;5130359;27;1955;-66
2021/06/17 06:23:41;;;;;;;;;;;;;;;26.29;60.41;100351.16;5129669;27;776;-68
2021/06/17 06:26:27;;;;;;;;;;;;;;;26.30;60.91;100366.16;5129553;27;1270;-67
2021/06/17 06:29:12;;;;;;;;;;;;;;;26.33;60.33;100371.22;5128613;27;1524;-69
2021/06/17 06:31:58;;;;;;;;;;;;;;;26.24;60.88;100377.44;5114543;27;1412;-71
2021/06/17 06:34:44;;;;;;;;;;;;;;;26.25;60.61;100379.13;5115316;27;1118;-68
2021/06/17 06:37:29;;;;;;;;;;;;;;;26.32;60.63;100368.72;5130842;27;1277;-69
2021/06/17 06:40:16;;;;;;;;;;;;;;;26.34;60.51;100372.06;5130462;27;1969;-69
2021/06/17 06:43:02;;;;;;;;;;;;;;;26.21;61.07;100366.19;5130862;27;1347;-68
2021/06/17 06:45:48;;;;;;;;;;;;;;;26.21;60.99;100372.38;5131110;27;1190;-68
2021/06/17 06:48:33;;;;;;;;;;;;;;;26.42;60.26;100370.34;5115866;27;698;-69
2021/06/17 06:51:19;;;;;;;;;;;;;;;26.30;61.08;100370.66;5114450;27;1426;-69
2021/06/17 06:54:05;;;;;;;;;;;;;;;26.33;60.44;100387.25;5114754;27;643;-67
2021/06/17 06:56:51;;;;;;;;;;;;;;;26.39;60.76;100408.03;5109062;28;1306;-68
2021/06/17 06:59:36;;;;;;;;;;;;;;;26.30;61.43;100416.91;5108851;28;1905;-68
2021/06/17 07:02:21;;;;;;;;;;;;;;;26.25;61.30;100416.50;5109080;28;1290;-69
2021/06/17 07:05:06;;;;;;;;;;;;;;;26.36;60.70;100416.31;5117159;27;1347;-68
2021/06/17 07:07:52;;;;;;;;;;;;;;;26.44;60.29;100416.47;5125284;27;1445;-67
2021/06/17 07:10:37;;;;;;;;;;;;;;;26.31;61.15;100410.59;5124033;27;1307;-67
2021/06/17 07:13:23;;;;;;;;;;;;;;;26.33;60.78;100402.41;5109278;28;695;-68
2021/06/17 07:16:08;;;;;;;;;;;;;;;26.39;60.11;100402.69;5108543;28;1333;-67
2021/06/17 07:18:55;;;;;;;;;;;;;;;26.26;60.96;100407.50;5108717;28;1987;-69
2021/06/17 07:21:40;;;;;;;;;;;;;;;26.40;60.23;100423.06;5108604;28;1388;-69
2021/06/17 07:24:25;;;;;;;;;;;;;;;26.49;60.03;100440.91;5092642;28;1034;-67
2021/06/17 07:27:10;;;;;;;;;;;;;;;26.39;59.88;100456.09;5108873;28;1286;-68
2021/06/17 07:29:55;;;;;;;;;;;;;;;26.40;59.61;100467.63;5109061;28;971;-67
2021/06/17 07:32:44;;;;;;;;;;;;;;;26.38;60.36;100473.13;5093912;28;1385;-74
2021/06/17 07:35:32;;;;;;;;;;;;;;;26.30;60.24;100459.63;5092611;28;1015;-71
2021/06/17 07:38:18;;;;;;;;;;;;;;;26.34;60.15;100470.88;5107716;28;1389;-68
2021/06/17 07:41:03;;;;;;;;;;;;;;;26.24;60.23;100480.69;5107533;28;1957;-69
2021/06/17 07:43:49;;;;;;;;;;;;;;;26.28;60.09;100477.63;5106644;28;598;-68
2021/06/17 07:46:34;;;;;;;;;;;;;;;26.35;59.41;100476.09;5128463;27;1287;-71
2021/06/17 07:49:19;;;;;;;;;;;;;;;26.43;59.39;100480.69;5127323;27;1200;-68
2021/06/17 07:52:05;;;;;;;;;;;;;;;26.28;60.17;100480.28;5108013;28;1294;-68
2021/06/17 07:54:50;;;;;;;;;;;;;;;26.35;59.35;100480.56;5108075;28;1019;-68
2021/06/17 07:57:35;;;;;;;;;;;;;;;26.37;59.87;100479.44;5108250;28;1237;-68
2021/06/17 08:00:21;;;;;;;;;;;;;;;26.31;59.96;100485.34;5092608;28;1914;-69
2021/06/17 08:03:08;;;;;;;;;;;;;;;26.20;60.23;100504.19;5107522;28;1405;-69
2021/06/17 08:05:53;;;;;;;;;;;;;;;26.21;59.91;100513.03;5106869;28;1011;-68
2021/06/17 08:08:38;;;;;;;;;;;;;;;26.16;60.19;100518.81;5107726;28;631;-68
2021/06/17 08:11:24;;;;;;;;;;;;;;;26.24;60.24;100513.59;5107587;28;1430;-69
2021/06/17 08:14:29;;;;;;;;;;;;;;;26.31;60.22;100505.88;5110341;28;624;-68
2021/06/17 08:17:14;;;;;;;;;;;;;;;26.25;60.37;100515.28;5128845;27;1219;-69
2021/06/17 08:20:00;;;;;;;;;;;;;;;26.18;61.75;100522.16;5127913;28;1968;-67
2021/06/17 08:22:45;;;;;;;;;;;;;;;26.10;62.09;100522.00;5129009;28;1278;-68
2021/06/17 08:25:32;;;;;;;;;;;;;;;26.12;61.67;100533.38;5128094;28;999;-69
2021/06/17 08:28:17;;;;;;;;;;;;;;;26.10;61.58;100535.34;5128555;27;1261;-69
2021/06/17 08:31:02;;;;;;;;;;;;;;;26.18;61.56;100543.53;5128071;28;1433;-67
2021/06/17 08:33:47;;;;;;;;;;;;;;;26.25;61.72;100542.00;5128027;28;717;-68
2021/06/17 08:36:33;;;;;;;;;;;;;;;26.16;61.39;100529.47;5128140;27;1325;-68
2021/06/17 08:39:18;;;;;;;;;;;;;;;26.21;61.88;100519.22;5126225;28;1959;-72
2021/06/17 08:42:04;;;;;;;;;;;;;;;26.32;61.08;100487.03;5117665;27;1715;-73
2021/06/17 08:44:49;;;;;;;;;;;;;;;26.16;61.85;100481.44;5127243;28;1246;-73
2021/06/17 08:47:36;;;;;;;;;;;;;;;26.13;61.30;100487.03;5127432;27;1446;-72
2021/06/17 08:50:22;;;;;;;;;;;;;;;26.08;61.78;100483.94;5104891;28;940;-71
2021/06/17 08:53:08;;;;;;;;;;;;;;;26.15;61.78;100470.84;5095753;28;1609;-72
2021/06/17 08:55:53;;;;;;;;;;;;;;;26.25;61.16;100458.38;5110926;28;980;-73
2021/06/17 08:58:39;;;;;;;;;;;;;;;26.17;61.64;100455.59;5113904;27;1275;-68
2021/06/17 09:01:24;;;;;;;;;;;;;;;26.22;61.62;100456.84;5122110;27;1918;-68
2021/06/17 09:04:20;;;;;;;;;;;;;;;26.20;61.41;100434.78;5113099;27;1022;-68
2021/06/17 09:07:06;;;;;;;;;;;;;;;26.09;62.47;100429.53;5115613;27;1550;-69
2021/06/17 09:09:51;;;;;;;;;;;;;;;26.01;63.16;100432.09;5110275;28;941;-67
2021/06/17 09:12:46;;;;;;;;;;;;;;;26.15;62.34;100429.00;5110837;28;1240;-68
2021/06/17 09:15:41;;;;;;;;;;;;;;;26.18;62.15;100426.06;5100205;28;1070;-68
2021/06/17 09:18:38;;;;;;;;;;;;;;;26.04;62.82;100419.31;5110542;28;1119;-73
2021/06/17 09:21:28;;;;;;;;;;;;;;;26.04;62.97;100421.13;5127748;27;1906;-70
2021/06/17 09:24:17;;;;;;;;;;;;;;;26.11;62.51;100432.09;5131045;27;1007;-70
2021/06/17 09:27:22;;;;;;;;;;;;;;;26.00;62.51;100435.75;5114567;27;1409;-70
2021/06/17 09:30:11;;;;;;;;;;;;;;;26.06;61.93;100427.16;5129814;27;1091;-67
2021/06/17 09:33:03;;;;;;;;;;;;;;;26.03;62.01;100420.28;5121421;27;1389;-71
2021/06/17 09:35:56;;;;;;;;;;;;;;;25.98;62.07;100429.72;5123453;27;604;-71
2021/06/17 09:38:44;;;;;;;;;;;;;;;26.06;61.64;100429.84;5132161;27;710;-73
2021/06/17 09:41:30;;;;;;;;;;;;;;;26.08;61.20;100415.34;5131265;27;1912;-71
2021/06/17 09:44:33;;;;;;;;;;;;;;;26.13;61.70;100398.94;5126262;27;1478;-71
2021/06/17 09:47:22;;;;;;;;;;;;;;;26.30;60.86;100397.38;5125834;27;1465;-69
2021/06/17 09:50:18;;;;;;;;;;;;;;;26.37;60.50;100391.31;5119542;27;1394;-69
2021/06/17 09:53:04;;;;;;;;;;;;;;;26.47;60.87;100370.78;5124601;27;1501;-71
2021/06/17 09:55:50;;;;;;;;;;;;;;;26.45;60.43;100355.84;5115778;27;1287;-70
2021/06/17 09:58:37;;;;;;;;;;;;;;;26.52;60.28;100355.13;5130347;27;1149;-69
2021/06/17 10:01:30;;;;;;;;;;;;;;;26.57;60.40;100358.19;5108362;27;1909;-71
2021/06/17 10:04:17;;;;;;;;;;;;;;;26.60;60.12;100365.06;5094211;27;1513;-73
2021/06/17 10:07:03;;;;;;;;;;;;;;;26.57;59.76;100376.91;5129014;27;1297;-73
2021/06/17 10:09:48;;;;;;;;;;;;;;;26.63;59.55;100374.66;5112806;27;976;-70
2021/06/17 10:12:34;;;;;;;;;;;;;;;26.61;59.81;100374.78;5128864;27;1365;-71
2021/06/17 10:15:19;;;;;;;;;;;;;;;26.69;59.33;100369.53;5119738;27;1020;-71
2021/06/17 10:18:05;;;;;;;;;;;;;;;26.72;59.35;100384.47;5109155;28;1377;-70
2021/06/17 10:20:50;;;;;;;;;;;;;;;26.70;59.92;100400.63;5108795;28;1901;-67
2021/06/17 10:23:36;;;;;;;;;;;;;;;26.79;59.78;100412.25;5109736;28;973;-71
2021/06/17 10:26:22;;;;;;;;;;;;;;;26.73;59.96;100396.81;5108733;28;1378;-72
2021/06/17 10:29:20;;;;;;;;;;;;;;;26.63;60.16;100392.34;5109570;28;718;-72
2021/06/17 10:32:06;;;;;;;;;;;;;;;26.68;59.89;100412.44;5108233;28;1192;-73
2021/06/17 10:34:55;;;;;;;;;;;;;;;26.66;59.62;100409.09;5107294;28;937;-72
2021/06/17 10:37:51;;;;;;;;;;;;;;;26.67;60.04;100413.41;5106750;28;1306;-68
2021/06/17 10:40:42;;;;;;;;;;;;;;;26.69;60.17;100398.91;5108634;28;1993;-73
2021/06/17 10:43:28;;;;;;;;;;;;;;;26.71;59.89;100415.66;5109559;28;1197;-72
2021/06/17 10:46:16;;;;;;;;;;;;;;;26.74;59.80;100406.50;5107956;28;1334;-73
2021/06/17 10:49:01;;;;;;;;;;;;;;;26.68;60.35;100401.75;5109089;28;659;-72
2021/06/17 10:52:05;;;;;;;;;;;;;;;26.71;60.23;100401.47;5109231;28;1366;-70
2021/06/17 10:54:54;;;;;;;;;;;;;;;26.69;60.54;100400.78;5108639;28;992;-70
2021/06/17 10:57:50;;;;;;;;;;;;;;;26.69;60.17;100400.78;5129024;27;1489;-69
2021/06/17 11:00:48;;;;;;;;;;;;;;;26.68;60.74;100396.41;5103647;28;1925;-71
2021/06/17 11:03:38;;;;;;;;;;;;;;;26.63;60.66;100398.69;5108393;28;1119;-71
2021/06/17 11:06:43;;;;;;;;;;;;;;;26.70;60.62;100395.28;5111040;27;1426;-69
2021/06/17 11:09:35;;;;;;;;;;;;;;;26.74;60.62;100390.47;5128765;27;972;-72
2021/06/17 11:12:28;;;;;;;;;;;;;;;26.69;60.91;100382.06;5128852;27;1388;-70
2021/06/17 11:15:33;;;;;;;;;;;;;;;26.72;60.45;100366.56;5119220;27;975;-71
2021/06/17 11:18:37;;;;;;;;;;;;;;;26.68;60.93;100369.69;5092088;28;1502;-71
2021/06/17 11:24:11;;;;;;;;;;;;;;;26.71;60.95;100343.53;5115648;27;1521;-70
2021/06/17 11:26:57;;;;;;;;;;;;;;;26.77;60.91;100342.09;5128228;27;1389;-67
2021/06/17 11:29:53;;;;;;;;;;;;;;;26.77;61.40;100344.75;5123934;27;1026;-71
2021/06/17 11:32:38;;;;;;;;;;;;;;;26.78;60.88;100341.94;5106900;28;1330;-72
2021/06/17 11:35:24;;;;;;;;;;;;;;;26.76;61.42;100351.09;5091734;28;1157;-72
2021/06/17 11:38:12;;;;;;;;;;;;;;;26.69;62.10;100352.69;5107254;28;1239;-74
2021/06/17 11:40:57;;;;;;;;;;;;;;;26.63;62.49;100350.59;5106712;27;1905;-66
2021/06/17 11:43:43;;;;;;;;;;;;;;;26.74;61.81;100350.41;5106924;27;1519;-67
2021/06/17 11:46:38;;;;;;;;;;;;;;;26.74;62.04;100335.22;5125194;27;1341;-69
2021/06/17 11:49:40;;;;;;;;;;;;;;;26.75;61.72;100334.22;5123808;27;999;-68
2021/06/17 11:52:26;;;;;;;;;;;;;;;26.79;61.47;100340.94;5126931;27;1490;-68
2021/06/17 11:55:12;;;;;;;;;;;;;;;26.81;61.57;100332.84;5125352;27;908;-68
2021/06/17 11:58:06;;;;;;;;;;;;;;;26.86;61.15;100341.22;5129353;27;1267;-65
2021/06/17 12:00:51;;;;;;;;;;;;;;;26.84;61.88;100343.22;5129168;27;1969;-69
2021/06/17 12:03:37;;;;;;;;;;;;;;;26.83;62.07;100344.19;5123380;27;1192;-67
2021/06/17 12:06:22;;;;;;;;;;;;;;;26.84;61.99;100343.22;5109730;27;1443;-65
2021/06/17 12:09:08;;;;;;;;;;;;;;;26.90;61.87;100343.44;5120339;28;1588;-66
2021/06/17 12:12:10;;;;;;;;;;;;;;;26.92;61.91;100345.97;5111571;28;1846;-67
2021/06/17 12:14:56;;;;;;;;;;;;;;;26.94;61.46;100366.22;5110707;28;1008;-66
2021/06/17 12:17:43;;;;;;;;;;;;;;;26.94;62.07;100349.34;5106372;28;1374;-65
2021/06/17 12:20:30;;;;;;;;;;;;;;;26.92;61.92;100364.69;5107714;28;1959;-64
2021/06/17 12:23:23;;;;;;;;;;;;;;;26.93;62.16;100371.72;5120426;28;1275;-66
2021/06/17 12:26:12;;;;;;;;;;;;;;;26.96;62.30;100382.13;5108978;28;1390;-66
2021/06/17 12:29:01;;;;;;;;;;;;;;;27.10;61.71;100376.25;5115782;27;1220;-65
2021/06/17 12:31:52;;;;;;;;;;;;;;;27.13;61.17;100381.31;5130842;27;1311;-65
2021/06/17 12:34:39;;;;;;;;;;;;;;;27.10;61.81;100392.28;5130865;27;980;-65
2021/06/17 12:37:25;;;;;;;;;;;;;;;27.04;61.87;100401.75;5131326;27;1282;-65
2021/06/17 12:40:10;;;;;;;;;;;;;;;27.09;62.23;100418.19;5126001;27;1971;-65
2021/06/17 12:43:08;;;;;;;;;;;;;;;27.04;61.10;100424.97;5130492;27;1783;-67
2021/06/17 12:46:02;;;;;;;;;;;;;;;27.02;62.69;100405.56;5111550;28;718;-66
2021/06/17 12:52:02;;;;;;;;;;;;;;;26.90;61.46;100378.19;5111050;28;1303;-68
2021/06/17 12:54:53;;;;;;;;;;;;;;;26.85;62.43;100312.81;5110148;28;1007;-67
2021/06/17 12:57:38;;;;;;;;;;;;;;;26.87;62.92;100295.63;5111078;28;1298;-67
2021/06/17 13:00:24;;;;;;;;;;;;;;;26.80;63.32;100237.63;5115001;27;2007;-68
2021/06/17 13:03:21;;;;;;;;;;;;;;;26.78;63.99;100240.41;5122118;27;1451;-65
2021/06/17 13:06:07;;;;;;;;;;;;;;;26.81;64.31;100292.75;5128614;27;1372;-67
2021/06/17 13:08:55;;;;;;;;;;;;;;;26.89;63.90;100319.56;5121058;27;1544;-64
2021/06/17 13:11:41;;;;;;;;;;;;;;;26.91;63.09;100296.19;5108546;28;1370;-66
2021/06/17 13:14:26;;;;;;;;;;;;;;;26.89;63.83;100277.63;5110588;27;1362;-64
2021/06/17 13:17:11;;;;;;;;;;;;;;;26.93;63.69;100288.88;5129129;27;1692;-66
2021/06/17 13:19:58;;;;;;;;;;;;;;;26.97;63.45;100279.53;5129848;27;647;-67
2021/06/17 13:22:55;;;;;;;;;;;;;;;27.03;63.31;100279.78;5107766;27;1533;-66
2021/06/17 13:25:41;;;;;;;;;;;;;;;27.06;62.38;100283.97;5102375;28;889;-67
2021/06/17 13:28:45;;;;;;;;;;;;;;;27.04;63.06;100273.44;5109489;28;1140;-67
2021/06/17 13:31:32;;;;;;;;;;;;;;;27.12;62.56;100273.53;5107661;28;1394;-70
2021/06/17 13:34:19;;;;;;;;;;;;;;;27.07;62.69;100283.84;5108604;28;734;-68
2021/06/17 13:37:04;;;;;;;;;;;;;;;27.03;61.36;100278.94;5107913;28;1271;-69
2021/06/17 13:39:50;;;;;;;;;;;;;;;27.00;62.33;100265.88;5109227;28;651;-67
2021/06/17 13:42:37;;;;;;;;;;;;;;;27.03;62.37;100260.22;5127485;27;1987;-72
2021/06/17 13:45:22;;;;;;;;;;;;;;;27.06;62.44;100267.94;5131364;27;964;-71
2021/06/17 13:48:12;;;;;;;;;;;;;;;27.02;62.44;100267.41;5129711;27;1280;-73
2021/06/17 13:50:58;;;;;;;;;;;;;;;27.00;62.77;100264.03;5113190;27;1795;-71
2021/06/17 13:53:43;;;;;;;;;;;;;;;26.98;61.55;100267.88;5127810;27;958;-72
2021/06/17 13:56:29;;;;;;;;;;;;;;;27.00;62.95;100269.38;5126787;27;1298;-73
2021/06/17 13:59:14;;;;;;;;;;;;;;;26.84;63.45;100284.44;5125608;27;1818;-75
2021/06/17 14:01:59;;;;;;;;;;;;;;;26.84;63.71;100268.41;5128497;27;1963;-72
2021/06/17 14:04:45;;;;;;;;;;;;;;;26.75;63.97;100269.28;5128816;27;710;-70
2021/06/17 14:07:30;;;;;;;;;;;;;;;26.76;63.53;100265.59;5128650;27;1294;-69
2021/06/17 14:10:20;;;;;;;;;;;;;;;26.64;64.34;100262.28;5128430;27;662;-70
2021/06/17 14:13:06;;;;;;;;;;;;;;;26.59;64.74;100257.41;5129274;27;1357;-71
2021/06/17 14:15:51;;;;;;;;;;;;;;;26.56;64.89;100268.41;5128246;27;1719;-73
2021/06/17 14:18:37;;;;;;;;;;;;;;;26.57;64.83;100275.41;5108801;28;663;-71
2021/06/17 14:21:22;;;;;;;;;;;;;;;26.63;65.33;100273.94;5092772;28;1922;-71
2021/06/17 14:24:07;;;;;;;;;;;;;;;26.56;66.02;100268.41;5092695;28;647;-74
2021/06/17 14:26:53;;;;;;;;;;;;;;;26.43;66.37;100280.41;5092400;28;1450;-74
2021/06/17 14:29:38;;;;;;;;;;;;;;;26.56;66.38;100264.88;5092059;28;1107;-71
2021/06/17 14:32:23;;;;;;;;;;;;;;;26.56;66.85;100270.22;5107772;28;1303;-73
2021/06/17 14:35:09;;;;;;;;;;;;;;;26.63;64.87;100270.47;5107932;28;1141;-71
2021/06/17 14:37:55;;;;;;;;;;;;;;;26.56;66.65;100271.06;5105727;28;1268;-72
2021/06/17 14:40:42;;;;;;;;;;;;;;;26.55;66.90;100269.38;5096938;28;1925;-72
2021/06/17 14:43:28;;;;;;;;;;;;;;;26.51;66.51;100273.31;5124037;27;1529;-69